createdAt,value
2023-03-06T00:01:18.459Z,87.26
2023-03-06T00:07:20.431Z,86.86
2023-03-06T00:13:24.997Z,86.88
2023-03-06T00:19:28.103Z,87.29
2023-03-06T00:25:30.189Z,87.46
2023-03-06T00:31:32.397Z,88.03
2023-03-06T00:37:34.329Z,88.57
2023-03-06T00:43:36.360Z,88.82
2023-03-06T00:49:38.490Z,88.94
2023-03-06T00:55:40.377Z,88.91
2023-03-06T01:01:42.349Z,88.91
2023-03-06T01:07:44.320Z,89.16
2023-03-06T01:13:46.377Z,89.35
2023-03-06T01:19:48.258Z,90.18
2023-03-06T01:25:50.141Z,90.47
2023-03-06T01:31:52.270Z,90.67
2023-03-06T01:37:54.212Z,90.60
2023-03-06T01:43:56.262Z,91.36
2023-03-06T01:50:00.620Z,91.53
2023-03-06T01:56:02.738Z,91.76
2023-03-06T02:02:08.744Z,92.23
2023-03-06T02:08:19.297Z,91.72
2023-03-06T02:14:21.698Z,92.88
2023-03-06T02:20:28.919Z,91.80
2023-03-06T02:26:32.835Z,92.74
2023-03-06T02:32:34.908Z,93.31
2023-03-06T02:38:50.916Z,92.60
2023-03-06T02:44:53.832Z,92.45
2023-03-06T02:50:55.905Z,93.00
2023-03-06T02:56:57.793Z,92.58
2023-03-06T03:02:59.886Z,92.45
2023-03-06T03:09:01.790Z,92.46
2023-03-06T03:15:04.624Z,92.19
2023-03-06T03:21:12.945Z,92.42
2023-03-06T03:27:14.918Z,92.21
2023-03-06T03:33:16.832Z,92.37
2023-03-06T03:39:19.818Z,92.22
2023-03-06T03:45:22.185Z,92.02
2023-03-06T03:51:24.150Z,91.66
2023-03-06T03:57:26.208Z,91.67
2023-03-06T04:03:29.236Z,91.88
2023-03-06T04:09:31.396Z,92.50
2023-03-06T04:15:33.384Z,92.70
2023-03-06T04:21:35.296Z,92.52
2023-03-06T04:27:37.178Z,92.92
2023-03-06T04:33:39.341Z,93.15
2023-03-06T04:39:41.189Z,93.17
2023-03-06T04:45:43.153Z,93.90
2023-03-06T04:51:45.055Z,94.08
2023-03-06T04:57:47.807Z,94.16
2023-03-06T05:03:49.983Z,94.74
2023-03-06T05:09:52.027Z,94.10
2023-03-06T05:15:54.175Z,94.33
2023-03-06T05:21:56.067Z,94.81
2023-03-06T05:27:58.434Z,94.09
2023-03-06T05:34:00.690Z,93.98
2023-03-06T05:40:06.728Z,93.60
2023-03-06T05:46:10.525Z,93.43
2023-03-06T05:52:13.165Z,94.23
2023-03-06T05:58:15.063Z,94.27
2023-03-06T06:04:16.946Z,93.99
2023-03-06T06:10:18.924Z,94.54
2023-03-06T06:16:20.828Z,95.45
2023-03-06T06:22:22.705Z,94.71
2023-03-06T06:28:24.604Z,95.50
2023-03-06T06:34:27.470Z,95.42
2023-03-06T06:40:29.651Z,96.20
2023-03-06T06:47:19.312Z,96.32
2023-03-06T06:52:53.495Z,96.84
2023-03-06T06:59:15.358Z,97.39
2023-03-06T07:05:21.009Z,97.42
2023-03-06T07:11:24.246Z,97.68
2023-03-06T07:17:26.198Z,98.28
2023-03-06T07:23:28.421Z,97.79
2023-03-06T07:29:32.919Z,96.82
2023-03-06T07:35:35.292Z,96.01
2023-03-06T07:41:37.325Z,95.77
2023-03-06T07:47:40.147Z,95.89
2023-03-06T07:53:42.499Z,95.96
2023-03-06T07:59:44.373Z,95.58
2023-03-06T08:05:46.351Z,96.04
2023-03-06T08:11:48.279Z,96.24
2023-03-06T08:17:51.068Z,95.69
2023-03-06T08:23:53.308Z,95.30
2023-03-06T08:29:55.195Z,95.43
2023-03-06T08:35:57.111Z,94.67
2023-03-06T08:41:59.037Z,94.58
2023-03-06T08:48:00.939Z,94.17
2023-03-06T08:54:02.991Z,92.97
2023-03-06T09:00:08.840Z,93.29
2023-03-06T09:06:10.799Z,92.81
2023-03-06T09:12:12.680Z,91.99
2023-03-06T09:18:14.555Z,90.86
2023-03-06T09:24:16.532Z,89.50
2023-03-06T09:30:19.010Z,86.00
2023-03-06T09:36:22.746Z,83.92
2023-03-06T09:42:25.406Z,81.42
2023-03-06T09:48:52.048Z,81.23
2023-03-06T09:55:04.604Z,83.09
2023-03-06T10:01:36.578Z,82.61
2023-03-06T10:08:18.653Z,82.37
2023-03-06T10:14:37.946Z,82.80
2023-03-06T10:21:04.739Z,81.43
2023-03-06T10:27:42.921Z,81.35
2023-03-06T10:33:55.667Z,79.90
2023-03-06T10:40:28.864Z,83.33
2023-03-06T10:46:37.421Z,82.13
2023-03-06T10:52:39.510Z,81.43
2023-03-06T10:58:41.450Z,81.24
2023-03-06T11:04:51.282Z,80.52
2023-03-06T11:11:02.299Z,80.58
2023-03-06T11:17:04.497Z,81.15
2023-03-06T11:23:37.264Z,80.64
2023-03-06T11:29:45.391Z,81.95
2023-03-06T11:36:05.320Z,83.03
2023-03-06T11:42:26.120Z,83.31
2023-03-06T11:48:36.851Z,82.76
2023-03-06T11:54:38.855Z,83.17
2023-03-06T12:01:08.725Z,85.23
2023-03-06T12:07:30.616Z,85.92
2023-03-06T12:13:54.327Z,85.64
2023-03-06T12:20:54.380Z,86.80
2023-03-06T12:27:15.402Z,88.20
2023-03-06T12:33:36.720Z,87.38
2023-03-06T12:40:02.953Z,89.07
2023-03-06T12:46:27.026Z,89.74
2023-03-06T12:52:34.353Z,92.10
2023-03-06T12:59:02.479Z,93.79
2023-03-06T13:05:43.938Z,92.31
2023-03-06T13:12:25.866Z,92.10
2023-03-06T13:18:46.120Z,91.68
2023-03-06T13:24:49.452Z,89.61
2023-03-06T13:30:53.368Z,89.51
2023-03-06T13:37:23.113Z,89.79
2023-03-06T13:43:25.183Z,89.62
2023-03-06T13:49:29.117Z,90.07
2023-03-06T13:55:57.097Z,91.82
2023-03-06T14:02:45.667Z,97.39
2023-03-06T14:08:47.775Z,99.87
2023-03-06T14:15:00.172Z,100.00
2023-03-06T14:21:06.248Z,99.67
2023-03-06T14:27:21.399Z,82.24
2023-03-06T14:33:51.232Z,71.21
2023-03-06T14:39:55.189Z,67.46
2023-03-06T14:46:03.141Z,61.55
2023-03-06T14:52:05.304Z,65.07
2023-03-06T14:58:36.086Z,69.28
2023-03-06T15:04:45.904Z,73.19
2023-03-06T15:11:05.773Z,76.42
2023-03-06T15:17:19.845Z,78.62
2023-03-06T15:23:27.236Z,80.76
2023-03-06T15:29:29.185Z,82.87
2023-03-06T15:35:34.264Z,84.10
2023-03-06T15:41:39.083Z,84.20
2023-03-06T15:47:41.307Z,85.22
2023-03-06T15:53:43.194Z,86.68
2023-03-06T15:59:45.553Z,87.13
2023-03-06T16:05:47.605Z,87.69
2023-03-06T16:11:49.675Z,87.61
2023-03-06T16:17:51.602Z,88.23
2023-03-06T16:23:53.651Z,88.80
2023-03-06T16:29:55.535Z,88.53
2023-03-06T16:35:57.456Z,88.60
2023-03-06T16:41:59.329Z,88.54
2023-03-06T16:48:01.324Z,88.35
2023-03-06T16:54:03.281Z,88.46
2023-03-06T17:00:06.621Z,89.56
2023-03-06T17:06:21.287Z,90.20
2023-03-06T17:12:23.166Z,91.45
2023-03-06T17:18:27.636Z,92.50
2023-03-06T17:24:29.556Z,93.53
2023-03-06T17:30:31.454Z,95.58
2023-03-06T17:36:33.662Z,96.32
2023-03-06T17:42:35.892Z,96.16
2023-03-06T17:48:38.124Z,96.78
2023-03-06T17:54:40.431Z,98.53
2023-03-06T18:00:43.052Z,98.44
2023-03-06T18:06:44.977Z,98.52
2023-03-06T18:12:46.872Z,98.15
2023-03-06T18:18:55.990Z,98.01
2023-03-06T18:24:57.891Z,97.94
2023-03-06T18:30:59.850Z,97.20
2023-03-06T18:37:01.727Z,97.82
2023-03-06T18:43:03.643Z,98.43
2023-03-06T18:49:06.466Z,98.79
2023-03-06T18:55:09.547Z,98.94
2023-03-06T19:01:11.896Z,99.62
2023-03-06T19:07:13.949Z,99.31
2023-03-06T19:13:16.047Z,100.00
2023-03-06T19:19:17.953Z,100.00
2023-03-06T19:25:20.233Z,100.00
2023-03-06T19:31:26.236Z,100.00
2023-03-06T19:37:28.300Z,100.00
2023-03-06T19:43:31.054Z,100.00
2023-03-06T19:49:39.843Z,100.00
2023-03-06T19:55:43.037Z,100.00
2023-03-06T20:01:45.117Z,100.00
2023-03-06T20:07:47.201Z,100.00
2023-03-06T20:13:49.761Z,100.00
2023-03-06T20:19:51.729Z,100.00
2023-03-06T20:26:07.247Z,100.00
2023-03-06T20:32:09.213Z,100.00
2023-03-06T20:38:11.684Z,100.00
2023-03-06T20:44:18.029Z,100.00
2023-03-06T20:50:19.906Z,100.00
2023-03-06T20:56:29.186Z,100.00
2023-03-06T21:02:31.150Z,100.00
2023-03-06T21:08:33.032Z,100.00
2023-03-06T21:14:34.911Z,100.00
2023-03-06T21:20:41.178Z,100.00
2023-03-06T21:26:43.081Z,100.00
2023-03-06T21:32:45.024Z,100.00
2023-03-06T21:38:49.423Z,100.00
2023-03-06T21:44:51.323Z,100.00
2023-03-06T21:50:53.224Z,99.83
2023-03-06T21:56:55.216Z,99.42
2023-03-06T22:02:57.201Z,99.12
2023-03-06T22:09:00.848Z,98.22
2023-03-06T22:15:03.121Z,98.10
2023-03-06T22:21:10.739Z,97.80
2023-03-06T22:27:12.613Z,97.36
2023-03-06T22:33:14.521Z,97.49
2023-03-06T22:39:17.234Z,97.44
2023-03-06T22:45:19.150Z,96.73
2023-03-06T22:51:21.614Z,96.71
2023-03-06T22:57:23.720Z,96.94
2023-03-06T23:03:25.588Z,96.54
2023-03-06T23:09:27.515Z,96.44
2023-03-06T23:15:29.448Z,97.03
2023-03-06T23:21:31.573Z,96.26
2023-03-06T23:27:36.204Z,95.16
2023-03-06T23:33:38.802Z,94.49
2023-03-06T23:39:40.789Z,93.05
2023-03-06T23:45:53.669Z,92.82
2023-03-06T23:51:55.569Z,91.53
2023-03-06T23:57:57.438Z,91.79
